Time;durP1;ratioP1;P1;durP2;ratioP2;P2;SDS_P1;SDS_P2;PMS_P1;PMS_P2;Temp;Humidity;BMP_temperature;BMP_pressure;BME280_temperature;BME280_humidity;BME280_pressure;Samples;Min_cycle;Max_cycle;Signal;HPM_P1;HPM_P2
2023/05/25 00:01:35;;;;;;;6.53;2.53;;;11.30;90.00;;;;;;4980561;28;20126;-75
2023/05/25 00:04:04;;;;;;;7.73;2.67;;;11.30;89.90;;;;;;4980672;28;20035;-75
2023/05/25 00:06:31;;;;;;;11.70;3.13;;;11.30;90.00;;;;;;4995226;28;20115;-76
2023/05/25 00:08:56;;;;;;;10.55;2.80;;;11.30;90.10;;;;;;4980506;28;20558;-75
2023/05/25 00:11:23;;;;;;;11.07;2.92;;;11.30;90.10;;;;;;4980506;28;20050;-75
2023/05/25 00:13:50;;;;;;;5.60;2.43;;;11.30;90.10;;;;;;4980635;28;20034;-75
2023/05/25 00:16:16;;;;;;;7.23;2.67;;;11.20;90.10;;;;;;4979424;28;20394;-75
2023/05/25 00:18:42;;;;;;;6.80;2.80;;;11.20;90.20;;;;;;4995565;28;20035;-75
2023/05/25 00:21:08;;;;;;;10.57;3.10;;;11.20;90.40;;;;;;4979142;28;20380;-75
2023/05/25 00:23:33;;;;;;;13.23;3.35;;;11.20;90.40;;;;;;4995718;28;20031;-79
2023/05/25 00:26:01;;;;;;;7.40;2.60;;;11.20;90.50;;;;;;4980372;28;20054;-79
2023/05/25 00:28:27;;;;;;;11.30;3.30;;;11.20;90.40;;;;;;4995008;28;20046;-79
2023/05/25 00:30:52;;;;;;;14.67;3.60;;;11.20;90.50;;;;;;4979021;28;20022;-80
2023/05/25 00:33:18;;;;;;;10.43;2.93;;;11.10;90.50;;;;;;4991685;28;20034;-80
2023/05/25 00:35:45;;;;;;;12.30;3.17;;;11.10;90.60;;;;;;4977340;28;20467;-80
2023/05/25 00:38:18;;;;;;;10.33;2.63;;;11.10;90.50;;;;;;4992118;28;20031;-80
2023/05/25 00:40:45;;;;;;;10.23;3.35;;;11.00;90.60;;;;;;4977219;28;20030;-79
2023/05/25 00:43:11;;;;;;;8.37;2.90;;;11.00;90.70;;;;;;4992036;28;20034;-80
2023/05/25 00:45:37;;;;;;;6.33;2.87;;;10.90;90.70;;;;;;4975604;28;20379;-79
2023/05/25 00:48:04;;;;;;;9.33;2.87;;;10.90;90.70;;;;;;4975814;28;20055;-79
2023/05/25 00:50:41;;;;;;;10.87;3.07;;;10.90;90.80;;;;;;4977059;28;20478;-80
2023/05/25 00:53:08;;;;;;;12.93;3.40;;;10.90;90.90;;;;;;4991934;28;20094;-79
2023/05/25 00:55:48;;;;;;;11.60;2.87;;;10.80;91.00;;;;;;4976918;28;20031;-80
2023/05/25 00:58:16;;;;;;;8.27;3.50;;;10.80;91.00;;;;;;4975476;28;20030;-79
2023/05/25 01:00:44;;;;;;;11.73;3.53;;;10.80;91.00;;;;;;4976851;28;20031;-80
2023/05/25 01:03:16;;;;;;;9.47;3.30;;;10.80;91.10;;;;;;4977075;28;20034;-80
2023/05/25 01:05:47;;;;;;;9.47;3.40;;;10.80;91.20;;;;;;4976742;28;20033;-79
2023/05/25 01:08:15;;;;;;;14.03;3.40;;;10.70;91.20;;;;;;4975270;28;20138;-79
2023/05/25 01:10:42;;;;;;;14.43;3.63;;;10.70;91.30;;;;;;4976717;28;20034;-79
2023/05/25 01:13:09;;;;;;;12.07;3.37;;;10.70;91.30;;;;;;4976625;28;20031;-79
2023/05/25 01:15:37;;;;;;;7.90;3.27;;;10.70;91.40;;;;;;4976568;28;20034;-74
2023/05/25 01:18:03;;;;;;;9.37;3.40;;;10.60;91.40;;;;;;4976409;28;20041;-75
2023/05/25 01:20:29;;;;;;;12.03;3.30;;;10.60;91.50;;;;;;4976350;28;20167;-74
2023/05/25 01:23:16;;;;;;;8.60;3.20;;;10.60;91.60;;;;;;4974984;28;20514;-75
2023/05/25 01:25:49;;;;;;;10.13;3.03;;;10.60;91.70;;;;;;4976207;28;20033;-74
2023/05/25 01:28:25;;;;;;;9.15;3.30;;;10.50;91.70;;;;;;4976241;28;20447;-75
2023/05/25 01:30:52;;;;;;;10.77;3.37;;;10.50;91.80;;;;;;4976190;28;20387;-75
2023/05/25 01:33:18;;;;;;;10.40;3.53;;;10.50;91.80;;;;;;4976160;28;20108;-74
2023/05/25 01:35:45;;;;;;;11.73;3.47;;;10.50;91.90;;;;;;4991129;28;20505;-75
2023/05/25 01:38:12;;;;;;;11.03;2.93;;;10.50;92.00;;;;;;4976479;28;20038;-75
2023/05/25 01:40:37;;;;;;;7.63;3.30;;;10.50;92.10;;;;;;4975048;28;20540;-75
2023/05/25 01:43:03;;;;;;;11.27;3.53;;;10.40;92.10;;;;;;4974688;28;20035;-75
2023/05/25 01:45:31;;;;;;;10.23;3.17;;;10.40;92.20;;;;;;4976046;28;20121;-75
2023/05/25 01:48:24;;;;;;;13.37;3.20;;;10.40;92.30;;;;;;4974553;28;20031;-75
2023/05/25 01:50:52;;;;;;;8.10;3.07;;;10.40;92.40;;;;;;4974584;28;20070;-75
2023/05/25 01:53:23;;;;;;;14.60;3.80;;;10.40;92.40;;;;;;4975876;28;20058;-75
2023/05/25 01:56:07;;;;;;;10.70;4.00;;;10.40;92.40;;;;;;4975817;28;20027;-75
2023/05/25 01:58:42;;;;;;;10.73;3.70;;;10.30;92.50;;;;;;4990717;28;20038;-75
2023/05/25 02:01:09;;;;;;;8.43;3.10;;;10.30;92.50;;;;;;4975846;28;20081;-75
2023/05/25 02:03:39;;;;;;;10.90;3.87;;;10.30;92.60;;;;;;4975693;28;20430;-74
2023/05/25 02:06:06;;;;;;;10.00;3.27;;;10.30;92.70;;;;;;4975679;28;20038;-75
2023/05/25 02:08:32;;;;;;;10.20;3.30;;;10.30;92.70;;;;;;4974231;28;20019;-75
2023/05/25 02:10:58;;;;;;;10.90;3.63;;;10.20;92.80;;;;;;4990468;28;20026;-74
2023/05/25 02:13:23;;;;;;;10.63;3.43;;;10.20;92.80;;;;;;4975397;28;20030;-74
2023/05/25 02:15:49;;;;;;;11.70;3.37;;;10.20;92.90;;;;;;4975429;28;20041;-75
2023/05/25 02:18:16;;;;;;;8.97;4.07;;;10.20;93.10;;;;;;4974205;28;20026;-75
2023/05/25 02:20:43;;;;;;;13.27;3.83;;;10.20;93.20;;;;;;4990168;28;20023;-74
2023/05/25 02:23:09;;;;;;;14.17;3.63;;;10.20;93.20;;;;;;4975334;28;20372;-75
2023/05/25 02:25:35;;;;;;;9.53;3.27;;;10.20;93.40;;;;;;4974076;28;20027;-74
2023/05/25 02:28:00;;;;;;;8.43;3.63;;;10.10;93.50;;;;;;4975249;28;20038;-75
2023/05/25 02:30:26;;;;;;;8.17;3.47;;;10.10;93.60;;;;;;4974052;28;20066;-78
2023/05/25 02:32:52;;;;;;;14.13;4.17;;;10.10;93.60;;;;;;4990323;28;20058;-80
2023/05/25 02:35:18;;;;;;;10.70;3.83;;;10.10;93.70;;;;;;4975037;28;20023;-80
2023/05/25 02:37:44;;;;;;;8.07;3.50;;;10.10;93.70;;;;;;4975083;28;20110;-80
2023/05/25 02:40:11;;;;;;;7.47;3.37;;;10.10;93.80;;;;;;4973731;28;20043;-80
2023/05/25 02:42:36;;;;;;;12.73;3.60;;;10.10;93.80;;;;;;4974992;28;20037;-79
2023/05/25 02:45:05;;;;;;;10.23;3.57;;;10.10;93.90;;;;;;4974873;28;20105;-80
2023/05/25 02:47:30;;;;;;;11.30;4.50;;;10.00;94.10;;;;;;4973651;28;20031;-80
2023/05/25 02:49:56;;;;;;;13.80;4.17;;;10.00;94.20;;;;;;4975162;28;20062;-80
2023/05/25 02:52:24;;;;;;;10.90;3.90;;;10.00;94.20;;;;;;4974823;28;20035;-80
2023/05/25 02:54:50;;;;;;;10.17;5.10;;;10.00;94.30;;;;;;4974371;28;20023;-80
2023/05/25 02:57:15;;;;;;;11.13;4.03;;;9.90;94.30;;;;;;4974599;28;20034;-80
2023/05/25 02:59:41;;;;;;;11.50;4.00;;;9.90;94.40;;;;;;4974684;28;20038;-80
2023/05/25 03:02:07;;;;;;;8.30;3.80;;;9.90;94.40;;;;;;4973667;28;20085;-80
2023/05/25 03:04:36;;;;;;;12.73;3.90;;;9.80;94.50;;;;;;4989607;28;20122;-80
2023/05/25 03:07:02;;;;;;;9.07;3.67;;;9.80;94.60;;;;;;4973298;28;20032;-80
2023/05/25 03:09:27;;;;;;;13.20;3.53;;;9.90;94.80;;;;;;4974754;28;20070;-80
2023/05/25 03:11:53;;;;;;;11.07;3.90;;;9.90;94.90;;;;;;4978050;28;20041;-81
2023/05/25 03:14:19;;;;;;;12.23;4.20;;;9.80;94.90;;;;;;4993316;28;20041;-78
2023/05/25 03:16:44;;;;;;;9.13;4.10;;;9.80;95.00;;;;;;4992367;28;20114;-81
2023/05/25 03:19:10;;;;;;;10.73;3.63;;;9.80;95.10;;;;;;4991316;28;20034;-80
2023/05/25 03:21:37;;;;;;;16.27;4.20;;;9.80;95.30;;;;;;4993215;28;20053;-80
2023/05/25 03:24:03;;;;;;;9.63;4.10;;;9.70;95.40;;;;;;4994000;28;20386;-79
2023/05/25 03:26:29;;;;;;;10.97;4.13;;;9.70;95.50;;;;;;4993038;28;20117;-80
2023/05/25 03:28:55;;;;;;;9.70;4.17;;;9.80;95.60;;;;;;4993646;28;20478;-79
2023/05/25 03:31:21;;;;;;;11.97;4.37;;;9.70;95.80;;;;;;4993955;28;20073;-80
2023/05/25 03:33:47;;;;;;;8.83;4.10;;;9.70;95.90;;;;;;4993913;28;20440;-80
2023/05/25 03:36:16;;;;;;;11.07;3.50;;;9.70;96.00;;;;;;4993885;28;20058;-79
2023/05/25 03:38:42;;;;;;;12.10;4.50;;;9.70;96.10;;;;;;4992697;28;20419;-79
2023/05/25 03:41:08;;;;;;;8.50;3.70;;;9.70;96.30;;;;;;4993664;28;20065;-79
2023/05/25 03:43:33;;;;;;;14.73;5.07;;;9.70;96.40;;;;;;4993597;28;20062;-79
2023/05/25 03:45:59;;;;;;;10.70;4.10;;;9.70;96.50;;;;;;4976184;28;20169;-79
2023/05/25 03:48:25;;;;;;;10.27;4.03;;;9.70;96.60;;;;;;4992402;28;20542;-79
2023/05/25 03:50:50;;;;;;;11.80;4.47;;;9.70;96.60;;;;;;4993832;28;20018;-79
2023/05/25 03:53:16;;;;;;;9.07;3.40;;;9.70;96.70;;;;;;4993586;28;20100;-79
2023/05/25 03:55:42;;;;;;;10.93;4.33;;;9.70;96.80;;;;;;4993755;28;20030;-79
2023/05/25 03:58:08;;;;;;;10.33;4.00;;;9.70;96.90;;;;;;4993499;28;20041;-79
2023/05/25 04:00:35;;;;;;;11.37;3.60;;;9.70;97.00;;;;;;4993550;28;20052;-79
2023/05/25 04:03:01;;;;;;;10.97;3.77;;;9.70;97.10;;;;;;4992510;28;20118;-79
2023/05/25 04:05:26;;;;;;;14.33;3.87;;;9.80;97.30;;;;;;4993480;28;20101;-79
2023/05/25 04:07:52;;;;;;;13.17;4.27;;;9.80;97.50;;;;;;4994952;28;20045;-79
2023/05/25 04:10:17;;;;;;;12.70;4.40;;;9.80;97.60;;;;;;4997427;28;20092;-78
2023/05/25 04:12:43;;;;;;;15.57;4.07;;;9.80;97.70;;;;;;4996006;28;20065;-78
2023/05/25 04:15:11;;;;;;;12.97;5.00;;;9.80;97.70;;;;;;4979627;28;20049;-79
2023/05/25 04:17:36;;;;;;;12.13;3.63;;;9.80;97.80;;;;;;4997201;28;20026;-79
2023/05/25 04:20:03;;;;;;;11.80;4.87;;;9.80;97.90;;;;;;4997071;28;20037;-80
2023/05/25 04:22:29;;;;;;;14.23;4.37;;;9.80;97.90;;;;;;4996822;28;20057;-78
2023/05/25 04:24:55;;;;;;;13.83;5.30;;;9.80;98.00;;;;;;4995658;28;20032;-79
2023/05/25 04:27:21;;;;;;;11.53;4.07;;;9.90;98.20;;;;;;4995537;28;20034;-79
2023/05/25 04:29:49;;;;;;;15.63;4.80;;;9.80;98.30;;;;;;4995604;28;20041;-79
2023/05/25 04:32:16;;;;;;;11.10;5.20;;;9.90;98.50;;;;;;4996671;28;20037;-79
2023/05/25 04:34:43;;;;;;;13.17;4.53;;;9.90;98.50;;;;;;4996705;28;20039;-78
2023/05/25 04:37:09;;;;;;;13.17;5.20;;;9.90;98.60;;;;;;4996708;28;20034;-79
2023/05/25 04:39:35;;;;;;;15.80;4.73;;;9.90;98.80;;;;;;4996939;28;20092;-79
2023/05/25 04:42:03;;;;;;;14.13;4.53;;;10.00;98.80;;;;;;4995367;28;20048;-79
2023/05/25 04:44:29;;;;;;;9.10;4.17;;;10.00;98.90;;;;;;4993380;28;20045;-79
2023/05/25 04:46:55;;;;;;;12.40;4.67;;;10.00;98.90;;;;;;4994446;28;20555;-79
2023/05/25 04:49:21;;;;;;;15.10;5.00;;;10.10;99.00;;;;;;4984606;28;20034;-79
2023/05/25 04:51:47;;;;;;;14.70;4.20;;;10.10;99.10;;;;;;5002384;28;20144;-78
2023/05/25 04:54:12;;;;;;;14.30;4.70;;;10.10;99.10;;;;;;4985271;28;20427;-78
2023/05/25 04:56:38;;;;;;;13.13;4.60;;;10.20;99.10;;;;;;4986383;28;20022;-78
2023/05/25 04:59:04;;;;;;;18.43;5.07;;;10.20;99.20;;;;;;5001716;28;20034;-78
2023/05/25 05:01:30;;;;;;;13.33;5.00;;;10.20;99.20;;;;;;4984812;28;20030;-79
2023/05/25 05:03:55;;;;;;;19.03;5.13;;;10.20;99.30;;;;;;4984244;28;20022;-79
2023/05/25 05:06:21;;;;;;;13.33;4.87;;;10.30;99.30;;;;;;4981745;28;20496;-79
2023/05/25 05:08:47;;;;;;;14.53;4.67;;;10.30;99.30;;;;;;4975383;28;20022;-79
2023/05/25 05:11:13;;;;;;;13.33;4.87;;;10.40;99.40;;;;;;4976895;28;20031;-78
2023/05/25 05:13:38;;;;;;;15.07;4.90;;;10.40;99.40;;;;;;4975234;28;20034;-79
2023/05/25 05:16:05;;;;;;;11.10;5.00;;;10.40;99.50;;;;;;4976543;28;20023;-79
2023/05/25 05:18:30;;;;;;;12.03;4.83;;;10.50;99.50;;;;;;4976092;28;20021;-78
2023/05/25 05:20:57;;;;;;;14.63;5.20;;;10.50;99.50;;;;;;4976478;28;20129;-78
2023/05/25 05:23:23;;;;;;;14.33;5.07;;;10.50;99.50;;;;;;4976424;28;20031;-79
2023/05/25 05:25:48;;;;;;;13.87;5.30;;;10.50;99.50;;;;;;4984162;28;20026;-80
2023/05/25 05:28:14;;;;;;;13.77;4.83;;;10.50;99.50;;;;;;4976247;28;20109;-81
2023/05/25 05:30:40;;;;;;;12.70;4.30;;;10.60;99.60;;;;;;4974858;28;20475;-81
2023/05/25 05:33:05;;;;;;;12.80;5.07;;;10.60;99.70;;;;;;4989175;28;20101;-81
2023/05/25 05:35:31;;;;;;;15.60;5.20;;;10.70;99.80;;;;;;4989554;28;20035;-81
2023/05/25 05:37:56;;;;;;;12.83;5.27;;;10.70;99.90;;;;;;4975156;28;20039;-81
2023/05/25 05:40:22;;;;;;;13.80;4.70;;;10.80;99.90;;;;;;4975366;28;20073;-82
2023/05/25 05:42:48;;;;;;;12.80;5.23;;;10.80;99.90;;;;;;4984002;28;20026;-82
2023/05/25 05:45:14;;;;;;;18.42;5.63;;;10.90;99.90;;;;;;4994740;28;20034;-82
2023/05/25 05:47:40;;;;;;;11.05;5.10;;;10.90;99.90;;;;;;5000591;28;20030;-81
2023/05/25 05:50:06;;;;;;;13.95;4.90;;;11.00;99.90;;;;;;5003465;28;20186;-82
2023/05/25 05:52:32;;;;;;;12.60;4.65;;;11.10;99.90;;;;;;5008146;28;20395;-81
2023/05/25 05:54:57;;;;;;;14.45;5.35;;;11.20;99.90;;;;;;4981857;28;20035;-81
2023/05/25 05:57:23;;;;;;;18.95;4.88;;;11.30;99.90;;;;;;4992312;28;20046;-81
2023/05/25 05:59:48;;;;;;;14.10;5.32;;;11.40;99.90;;;;;;4992184;28;20038;-81
2023/05/25 06:02:14;;;;;;;14.95;4.75;;;11.40;99.90;;;;;;4992570;28;20030;-81
2023/05/25 06:04:40;;;;;;;12.70;4.60;;;11.60;99.90;;;;;;4976954;28;20475;-81
2023/05/25 06:07:05;;;;;;;12.55;5.15;;;11.60;99.90;;;;;;5003015;28;20085;-81
2023/05/25 06:09:31;;;;;;;11.93;4.60;;;11.70;99.90;;;;;;4993684;28;20042;-81
2023/05/25 06:11:56;;;;;;;14.23;4.20;;;11.80;99.90;;;;;;4976340;28;20038;-82
2023/05/25 06:14:22;;;;;;;14.70;5.13;;;11.80;99.90;;;;;;4994827;28;20081;-81
2023/05/25 06:16:49;;;;;;;16.75;4.68;;;11.80;99.90;;;;;;4994617;28;20471;-81
2023/05/25 06:19:15;;;;;;;15.15;5.15;;;11.90;99.90;;;;;;4992628;28;20038;-81
2023/05/25 06:21:41;;;;;;;18.23;5.18;;;11.90;99.90;;;;;;4993296;28;20046;-82
2023/05/25 06:24:06;;;;;;;16.30;4.68;;;12.00;99.90;;;;;;4977427;28;20042;-80
2023/05/25 06:26:32;;;;;;;13.38;4.38;;;12.00;99.90;;;;;;4993531;28;20106;-81
2023/05/25 06:28:58;;;;;;;12.20;4.50;;;12.10;99.90;;;;;;4977265;28;20038;-83
2023/05/25 06:31:23;;;;;;;13.07;4.55;;;12.10;99.90;;;;;;4992584;28;20038;-82
2023/05/25 06:33:49;;;;;;;15.15;4.57;;;12.20;99.90;;;;;;4993245;28;20026;-81
2023/05/25 06:36:14;;;;;;;14.48;4.85;;;12.20;99.90;;;;;;4993286;28;20399;-81
2023/05/25 06:38:40;;;;;;;10.00;4.63;;;12.30;99.90;;;;;;4994601;28;20104;-81
2023/05/25 06:41:08;;;;;;;9.88;4.03;;;12.40;99.90;;;;;;4993270;28;20402;-82
2023/05/25 06:43:34;;;;;;;14.57;4.88;;;12.40;99.80;;;;;;4993053;28;20045;-82
2023/05/25 06:45:59;;;;;;;19.60;4.85;;;12.50;99.80;;;;;;4994830;28;20030;-82
2023/05/25 06:48:25;;;;;;;12.57;3.97;;;12.60;99.80;;;;;;4994330;28;20081;-81
2023/05/25 06:50:51;;;;;;;13.88;4.25;;;12.70;99.70;;;;;;4994195;28;20034;-81
2023/05/25 06:53:16;;;;;;;11.07;3.63;;;12.70;99.60;;;;;;4994240;28;20034;-81
2023/05/25 06:55:42;;;;;;;12.90;4.55;;;12.80;99.40;;;;;;4994575;28;20042;-81
2023/05/25 06:58:08;;;;;;;10.13;4.25;;;12.80;99.40;;;;;;4994071;28;20096;-83
2023/05/25 07:00:33;;;;;;;13.55;4.28;;;12.90;99.30;;;;;;5009338;28;20038;-81
2023/05/25 07:03:00;;;;;;;10.52;3.58;;;13.00;99.20;;;;;;4976837;28;20034;-81
2023/05/25 07:05:25;;;;;;;13.25;4.35;;;13.10;99.10;;;;;;4992954;28;20038;-81
2023/05/25 07:07:51;;;;;;;13.57;3.92;;;13.20;99.10;;;;;;4993988;28;20391;-82
2023/05/25 07:10:17;;;;;;;14.45;4.35;;;13.30;98.90;;;;;;4992887;28;20045;-81
2023/05/25 07:12:43;;;;;;;12.07;3.47;;;13.40;98.90;;;;;;4992826;28;20022;-81
2023/05/25 07:15:09;;;;;;;12.18;3.28;;;13.50;98.70;;;;;;4994101;28;20069;-79
2023/05/25 07:17:35;;;;;;;12.00;3.03;;;13.60;98.60;;;;;;4993934;28;20088;-81
2023/05/25 07:20:01;;;;;;;8.15;3.42;;;13.70;98.30;;;;;;4993993;28;20042;-82
2023/05/25 07:22:27;;;;;;;8.73;2.88;;;13.80;98.10;;;;;;4993944;28;20050;-82
2023/05/25 07:24:52;;;;;;;11.07;3.15;;;13.90;97.90;;;;;;4994028;28;20105;-82
2023/05/25 07:27:18;;;;;;;9.93;2.10;;;14.00;97.80;;;;;;4992700;28;20042;-79
2023/05/25 07:29:44;;;;;;;10.68;2.95;;;14.10;97.50;;;;;;4994115;28;20042;-79
2023/05/25 07:32:10;;;;;;;9.73;2.35;;;14.20;97.20;;;;;;4993652;28;20026;-82
2023/05/25 07:34:35;;;;;;;13.52;2.83;;;14.30;96.90;;;;;;4993857;28;20031;-81
2023/05/25 07:37:01;;;;;;;8.27;1.77;;;14.40;96.60;;;;;;4993835;28;20070;-80
2023/05/25 07:39:27;;;;;;;10.88;2.38;;;14.50;96.30;;;;;;4992606;28;20034;-81
2023/05/25 07:41:53;;;;;;;12.18;3.63;;;14.60;95.90;;;;;;4995376;28;20500;-81
2023/05/25 07:44:18;;;;;;;11.75;2.17;;;14.70;95.50;;;;;;4997767;28;20386;-82
2023/05/25 07:46:44;;;;;;;8.45;2.03;;;14.80;95.20;;;;;;4996535;28;20035;-82
2023/05/25 07:49:15;;;;;;;8.98;2.10;;;14.90;94.90;;;;;;4996473;28;20502;-82
2023/05/25 07:51:44;;;;;;;10.43;2.25;;;15.00;94.70;;;;;;4996604;28;20030;-81
2023/05/25 07:54:10;;;;;;;8.02;1.90;;;15.00;94.30;;;;;;4979956;28;20034;-82
2023/05/25 07:56:36;;;;;;;10.27;2.15;;;15.20;94.00;;;;;;4997503;28;20034;-82
2023/05/25 07:59:02;;;;;;;12.18;2.00;;;15.20;93.70;;;;;;4996251;28;20181;-80
2023/05/25 08:01:28;;;;;;;6.25;1.90;;;15.30;93.40;;;;;;4997445;28;20065;-82
2023/05/25 08:03:53;;;;;;;8.82;2.00;;;15.40;93.20;;;;;;4997315;28;20034;-82
2023/05/25 08:06:19;;;;;;;10.27;2.03;;;15.50;92.90;;;;;;4997358;28;20034;-81
2023/05/25 08:08:45;;;;;;;8.45;2.08;;;15.60;92.70;;;;;;4996368;28;20476;-81
2023/05/25 08:11:11;;;;;;;6.40;2.03;;;15.70;92.50;;;;;;4997161;28;20065;-82
2023/05/25 08:13:37;;;;;;;8.07;1.70;;;15.70;92.00;;;;;;4997290;28;20054;-83
2023/05/25 08:16:04;;;;;;;8.57;2.25;;;15.80;91.60;;;;;;4979969;28;20114;-81
2023/05/25 08:18:30;;;;;;;7.30;1.80;;;15.90;91.20;;;;;;4995883;28;20041;-82
2023/05/25 08:20:56;;;;;;;9.77;2.25;;;16.00;90.90;;;;;;4997115;28;20037;-81
2023/05/25 08:23:22;;;;;;;7.97;2.30;;;16.10;90.50;;;;;;4995778;28;20387;-82
2023/05/25 08:25:48;;;;;;;7.47;1.35;;;16.20;90.20;;;;;;4996956;28;20034;-82
2023/05/25 08:28:13;;;;;;;7.75;2.03;;;16.20;89.80;;;;;;4996891;28;20065;-81
2023/05/25 08:30:40;;;;;;;8.40;2.13;;;16.30;89.10;;;;;;4995673;28;20033;-82
2023/05/25 08:33:06;;;;;;;7.97;1.90;;;16.40;88.50;;;;;;4996909;28;20038;-81
2023/05/25 08:35:31;;;;;;;9.13;1.63;;;16.50;88.10;;;;;;4997245;28;20039;-81
2023/05/25 08:37:57;;;;;;;10.77;1.63;;;16.50;87.70;;;;;;4996730;28;20104;-82
2023/05/25 08:40:27;;;;;;;6.88;2.00;;;16.50;87.30;;;;;;4996667;28;20037;-82
2023/05/25 08:42:52;;;;;;;7.15;1.83;;;16.60;86.80;;;;;;4995437;28;20528;-82
2023/05/25 08:45:18;;;;;;;6.95;1.73;;;16.60;86.20;;;;;;4997015;28;20058;-81
2023/05/25 08:47:47;;;;;;;7.50;2.15;;;16.70;85.60;;;;;;4995489;28;20034;-81
2023/05/25 08:50:15;;;;;;;9.63;1.90;;;16.70;85.30;;;;;;4996765;28;20120;-80
2023/05/25 08:52:45;;;;;;;7.07;1.70;;;16.80;84.70;;;;;;4994873;28;20025;-81
2023/05/25 08:55:11;;;;;;;8.80;2.17;;;16.80;84.10;;;;;;4996249;28;20065;-82
2023/05/25 08:58:12;;;;;;;10.15;2.28;;;16.90;83.60;;;;;;4996349;28;20053;-81
2023/05/25 09:00:46;;;;;;;7.95;1.95;;;17.00;83.00;;;;;;4995950;28;20042;-81
2023/05/25 09:03:16;;;;;;;9.85;2.15;;;17.00;82.60;;;;;;4996193;28;20026;-82
2023/05/25 09:05:42;;;;;;;8.52;1.70;;;17.10;82.40;;;;;;4996469;28;20029;-83
2023/05/25 09:08:11;;;;;;;5.15;1.63;;;17.20;82.30;;;;;;4995009;28;20034;-81
2023/05/25 09:10:37;;;;;;;11.55;2.95;;;17.30;82.10;;;;;;4979122;28;20434;-83
2023/05/25 09:13:04;;;;;;;7.97;2.08;;;17.40;81.70;;;;;;4996241;28;20020;-81
2023/05/25 09:15:33;;;;;;;8.18;2.15;;;17.40;81.10;;;;;;4994941;28;20438;-82
2023/05/25 09:17:59;;;;;;;10.85;2.25;;;17.50;80.70;;;;;;4996154;28;20034;-82
2023/05/25 09:20:30;;;;;;;7.20;1.70;;;17.60;80.20;;;;;;4996102;28;20110;-82
2023/05/25 09:23:02;;;;;;;8.15;2.28;;;17.60;79.50;;;;;;4979071;28;20039;-82
2023/05/25 09:25:29;;;;;;;7.85;1.95;;;17.60;79.10;;;;;;4996227;28;20046;-82
2023/05/25 09:27:58;;;;;;;6.80;2.47;;;17.70;78.90;;;;;;4995837;28;20089;-81
2023/05/25 09:30:26;;;;;;;10.38;2.40;;;17.70;78.50;;;;;;4996204;28;20109;-82
2023/05/25 09:32:52;;;;;;;9.73;2.58;;;17.70;78.10;;;;;;4995850;28;20099;-82
2023/05/25 09:35:18;;;;;;;9.80;2.17;;;17.70;77.90;;;;;;4996052;28;20030;-74
2023/05/25 09:37:44;;;;;;;9.43;2.13;;;17.60;77.60;;;;;;4995987;28;20030;-75
2023/05/25 09:40:10;;;;;;;6.75;1.85;;;17.60;77.30;;;;;;4995535;28;20034;-74
2023/05/25 09:42:36;;;;;;;6.93;1.98;;;17.70;77.10;;;;;;4995579;28;20022;-75
2023/05/25 09:45:03;;;;;;;8.25;2.22;;;17.70;76.80;;;;;;4995580;28;20109;-75
2023/05/25 09:47:29;;;;;;;7.95;2.05;;;17.80;76.50;;;;;;4995361;28;20031;-74
2023/05/25 09:49:55;;;;;;;5.32;1.52;;;17.80;76.10;;;;;;4994080;28;20058;-73
2023/05/25 09:52:21;;;;;;;5.93;1.40;;;17.90;75.80;;;;;;4995263;28;20487;-75
2023/05/25 09:54:49;;;;;;;5.60;1.65;;;18.00;75.10;;;;;;4995371;28;20072;-74
2023/05/25 09:57:15;;;;;;;8.40;2.42;;;18.20;74.50;;;;;;4995180;28;20037;-74
2023/05/25 09:59:42;;;;;;;6.13;1.60;;;18.30;74.10;;;;;;4995519;28;20105;-75
2023/05/25 10:02:08;;;;;;;6.05;1.67;;;18.30;73.60;;;;;;4995355;28;20450;-75
2023/05/25 10:04:33;;;;;;;8.35;2.60;;;18.40;73.30;;;;;;4994905;28;20062;-73
2023/05/25 10:07:09;;;;;;;7.75;2.28;;;18.50;72.80;;;;;;4993818;28;20045;-73
2023/05/25 10:09:44;;;;;;;6.78;1.83;;;18.60;72.20;;;;;;4995059;28;20030;-73
2023/05/25 10:12:11;;;;;;;7.10;1.90;;;18.60;71.70;;;;;;4995006;28;20042;-74
2023/05/25 10:14:37;;;;;;;4.72;1.67;;;18.70;71.40;;;;;;4994935;28;20050;-75
2023/05/25 10:17:05;;;;;;;7.30;1.95;;;18.70;70.90;;;;;;4994927;28;20026;-73
2023/05/25 10:19:49;;;;;;;5.45;1.80;;;18.70;70.50;;;;;;4994790;28;20076;-74
2023/05/25 10:22:16;;;;;;;7.28;1.63;;;18.80;70.00;;;;;;4994770;28;20047;-75
2023/05/25 10:24:54;;;;;;;7.43;2.35;;;18.80;69.90;;;;;;4994667;28;20035;-75
2023/05/25 10:27:25;;;;;;;5.22;1.55;;;18.90;69.80;;;;;;4994670;28;20038;-75
2023/05/25 10:29:55;;;;;;;6.97;1.73;;;19.00;69.70;;;;;;4994705;28;20023;-74
2023/05/25 10:32:21;;;;;;;3.90;1.17;;;19.10;69.40;;;;;;4994628;28;20109;-75
2023/05/25 10:34:49;;;;;;;4.60;1.50;;;19.30;69.10;;;;;;4994629;28;20023;-75
2023/05/25 10:37:15;;;;;;;5.35;1.20;;;19.50;68.40;;;;;;4994573;28;20053;-75
2023/05/25 10:39:45;;;;;;;5.05;1.20;;;19.70;67.90;;;;;;4994458;28;20030;-75
2023/05/25 10:42:11;;;;;;;5.85;1.17;;;19.90;67.30;;;;;;4992982;28;20450;-75
2023/05/25 10:44:39;;;;;;;4.78;1.25;;;20.10;66.80;;;;;;4993459;28;20038;-75
2023/05/25 10:47:06;;;;;;;6.90;1.55;;;20.30;66.30;;;;;;4994257;28;20022;-75
2023/05/25 10:49:33;;;;;;;3.55;1.40;;;20.40;65.80;;;;;;4994182;28;20492;-74
2023/05/25 10:52:00;;;;;;;4.70;1.40;;;20.50;65.30;;;;;;4994452;28;20022;-74
2023/05/25 10:54:33;;;;;;;6.10;1.55;;;20.60;65.40;;;;;;4993252;28;20041;-74
2023/05/25 10:57:16;;;;;;;6.53;1.95;;;20.50;64.10;;;;;;4994249;28;20023;-75
2023/05/25 10:59:44;;;;;;;6.25;1.95;;;20.60;63.60;;;;;;4994123;28;20118;-74
2023/05/25 11:02:10;;;;;;;5.63;1.25;;;20.60;63.60;;;;;;4992860;28;20026;-75
2023/05/25 11:04:36;;;;;;;5.72;1.33;;;20.60;63.20;;;;;;4993999;28;20475;-74
2023/05/25 11:07:02;;;;;;;6.53;1.20;;;20.60;62.80;;;;;;4993990;28;20061;-74
2023/05/25 11:09:32;;;;;;;4.75;1.77;;;20.70;62.30;;;;;;4994166;28;20022;-74
2023/05/25 11:12:00;;;;;;;5.80;1.83;;;20.60;61.80;;;;;;4994136;28;20076;-73
2023/05/25 11:14:28;;;;;;;5.05;1.30;;;20.60;61.80;;;;;;4993989;28;20022;-74
2023/05/25 11:17:20;;;;;;;8.18;1.92;;;20.50;61.90;;;;;;4993521;28;20034;-74
2023/05/25 11:19:55;;;;;;;5.82;1.50;;;20.50;61.90;;;;;;4994038;28;20026;-74
2023/05/25 11:22:29;;;;;;;5.30;1.50;;;20.50;61.90;;;;;;4994044;28;20142;-74
2023/05/25 11:24:57;;;;;;;6.05;1.40;;;20.50;61.70;;;;;;4993978;28;20053;-74
2023/05/25 11:27:24;;;;;;;5.63;1.35;;;20.60;61.60;;;;;;4992999;28;20030;-75
2023/05/25 11:29:51;;;;;;;5.53;1.55;;;20.60;61.40;;;;;;4993801;28;20029;-74
2023/05/25 11:32:17;;;;;;;4.82;1.35;;;20.70;61.30;;;;;;4993954;28;20019;-74
2023/05/25 11:34:45;;;;;;;6.43;1.42;;;20.80;60.90;;;;;;4993585;28;20114;-75
2023/05/25 11:37:14;;;;;;;4.40;1.30;;;20.80;60.40;;;;;;4992468;28;20027;-74
2023/05/25 11:39:41;;;;;;;4.22;0.95;;;20.80;60.00;;;;;;4993501;28;20491;-73
2023/05/25 11:42:09;;;;;;;6.85;1.80;;;20.90;59.70;;;;;;4993566;28;20076;-75
2023/05/25 11:44:38;;;;;;;4.07;1.30;;;21.00;59.50;;;;;;4993889;28;20031;-74
2023/05/25 11:47:12;;;;;;;5.55;1.30;;;21.10;59.40;;;;;;4976213;28;20049;-75
2023/05/25 11:49:40;;;;;;;;;;;21.20;59.20;;;;;;4994175;28;20045;-75
2023/05/25 11:52:06;;;;;;;4.80;1.00;;;21.40;59.40;;;;;;4994298;28;20429;-75
2023/05/25 11:54:32;;;;;;;5.18;1.30;;;21.50;59.60;;;;;;4993715;28;20035;-74
2023/05/25 11:56:58;;;;;;;3.25;0.82;;;21.80;59.00;;;;;;4993518;28;20390;-75
2023/05/25 11:59:26;;;;;;;4.80;1.13;;;22.10;58.20;;;;;;4993597;28;20541;-75
2023/05/25 12:02:00;;;;;;;4.03;1.23;;;22.40;57.30;;;;;;4993733;28;20068;-75
2023/05/25 12:04:27;;;;;;;3.97;1.02;;;22.60;56.70;;;;;;5008504;28;20085;-77
2023/05/25 12:07:03;;;;;;;3.35;1.35;;;22.80;56.30;;;;;;4993454;28;20050;-76
2023/05/25 12:09:29;;;;;;;7.68;1.70;;;22.80;55.70;;;;;;4993776;28;20502;-75
2023/05/25 12:11:55;;;;;;;6.40;1.60;;;22.80;55.70;;;;;;4993462;28;20080;-75
2023/05/25 12:14:22;;;;;;;5.25;1.67;;;22.70;55.50;;;;;;4993369;28;20418;-76
2023/05/25 12:16:48;;;;;;;6.47;1.55;;;22.70;55.30;;;;;;4993409;28;20428;-76
2023/05/25 12:19:15;;;;;;;3.88;1.30;;;22.70;55.20;;;;;;4993312;28;20062;-75
2023/05/25 12:21:41;;;;;;;6.32;1.42;;;22.80;55.00;;;;;;4993255;28;20066;-74
2023/05/25 12:24:08;;;;;;;6.05;1.67;;;22.80;54.60;;;;;;4993591;28;20038;-75
2023/05/25 12:26:35;;;;;;;6.43;1.25;;;22.90;54.30;;;;;;4992037;28;20510;-75
2023/05/25 12:29:01;;;;;;;5.47;1.52;;;22.90;54.30;;;;;;4995107;28;20085;-76
2023/05/25 12:31:28;;;;;;;7.10;1.42;;;22.80;54.20;;;;;;4995338;28;20018;-75
2023/05/25 12:34:11;;;;;;;8.30;1.83;;;22.70;54.20;;;;;;4996749;28;20030;-74
2023/05/25 12:36:39;;;;;;;5.53;1.25;;;22.70;54.10;;;;;;4996609;28;20030;-75
2023/05/25 12:39:06;;;;;;;5.30;1.95;;;22.70;54.10;;;;;;4995430;28;20042;-75
2023/05/25 12:41:51;;;;;;;7.68;2.35;;;22.70;54.10;;;;;;4996555;28;20487;-74
2023/05/25 12:44:26;;;;;;;6.28;1.35;;;22.70;54.20;;;;;;4996750;28;20118;-75